createdAt,value
2023-05-18T00:02:10.190Z,7.70
2023-05-18T00:04:37.396Z,7.60
2023-05-18T00:07:05.538Z,7.60
2023-05-18T00:09:35.885Z,7.60
2023-05-18T00:12:04.879Z,7.50
2023-05-18T00:14:33.155Z,7.50
2023-05-18T00:17:02.119Z,7.50
2023-05-18T00:19:29.984Z,7.40
2023-05-18T00:21:57.514Z,7.40
2023-05-18T00:24:24.831Z,7.40
2023-05-18T00:26:52.082Z,7.40
2023-05-18T00:29:19.234Z,7.30
2023-05-18T00:31:47.819Z,7.30
2023-05-18T00:34:16.810Z,7.30
2023-05-18T00:36:44.063Z,7.30
2023-05-18T00:39:11.219Z,7.30
2023-05-18T00:41:38.967Z,7.20
2023-05-18T00:44:06.184Z,7.20
2023-05-18T00:46:33.515Z,7.20
2023-05-18T00:49:02.203Z,7.20
2023-05-18T00:51:30.184Z,7.20
2023-05-18T00:53:58.912Z,7.10
2023-05-18T00:56:26.997Z,7.30
2023-05-18T00:58:55.606Z,7.20
2023-05-18T01:01:28.111Z,7.20
2023-05-18T01:03:56.601Z,7.20
2023-05-18T01:06:27.902Z,7.10
2023-05-18T01:08:55.343Z,7.10
2023-05-18T01:11:27.229Z,7.10
2023-05-18T01:14:01.864Z,7.10
2023-05-18T01:16:37.600Z,7.00
2023-05-18T01:19:28.470Z,7.00
2023-05-18T01:22:09.131Z,7.00
2023-05-18T01:24:42.835Z,7.00
2023-05-18T01:27:15.207Z,6.90
2023-05-18T01:29:43.177Z,6.80
2023-05-18T01:32:10.318Z,6.80
2023-05-18T01:34:37.122Z,6.80
2023-05-18T01:37:04.644Z,6.70
2023-05-18T01:39:31.538Z,6.70
2023-05-18T01:42:04.147Z,6.70
2023-05-18T01:44:39.727Z,6.60
2023-05-18T01:47:12.632Z,6.60
2023-05-18T01:49:45.669Z,6.50
2023-05-18T01:52:19.763Z,6.50
2023-05-18T01:54:50.653Z,6.40
2023-05-18T01:57:20.950Z,6.60
2023-05-18T01:59:49.880Z,6.40
2023-05-18T02:02:17.954Z,6.40
2023-05-18T02:04:44.911Z,6.40
2023-05-18T02:07:12.270Z,6.40
2023-05-18T02:09:39.206Z,6.40
2023-05-18T02:12:07.316Z,6.40
2023-05-18T02:14:34.183Z,6.40
2023-05-18T02:17:03.067Z,6.30
2023-05-18T02:19:32.651Z,6.20
2023-05-18T02:21:59.866Z,6.30
2023-05-18T02:24:27.109Z,6.30
2023-05-18T02:26:54.303Z,6.30
2023-05-18T02:29:21.146Z,6.30
2023-05-18T02:31:48.318Z,6.20
2023-05-18T02:34:17.069Z,6.20
2023-05-18T02:36:44.265Z,6.20
2023-05-18T02:39:11.110Z,6.30
2023-05-18T02:41:38.439Z,6.30
2023-05-18T02:44:06.312Z,6.30
2023-05-18T02:46:33.309Z,6.20
2023-05-18T02:49:00.276Z,6.30
2023-05-18T02:51:30.231Z,6.20
2023-05-18T02:53:57.532Z,6.20
2023-05-18T02:56:25.066Z,6.20
2023-05-18T02:58:57.582Z,6.20
2023-05-18T03:01:27.869Z,6.20
2023-05-18T03:03:57.405Z,6.20
2023-05-18T03:06:27.102Z,6.20
2023-05-18T03:08:55.771Z,6.20
2023-05-18T03:11:23.593Z,6.10
2023-05-18T03:13:50.770Z,6.10
2023-05-18T03:16:18.021Z,6.10
2023-05-18T03:18:44.932Z,6.10
2023-05-18T03:21:13.700Z,6.10
2023-05-18T03:23:41.054Z,6.10
2023-05-18T03:26:11.912Z,6.00
2023-05-18T03:28:39.023Z,5.90
2023-05-18T03:31:06.878Z,5.80
2023-05-18T03:33:34.177Z,5.80
2023-05-18T03:36:04.160Z,5.80
2023-05-18T03:38:30.999Z,5.80
2023-05-18T03:40:58.362Z,5.80
2023-05-18T03:43:26.708Z,5.90
2023-05-18T03:45:53.847Z,5.90
2023-05-18T03:48:21.575Z,5.80
2023-05-18T03:50:48.852Z,5.80
2023-05-18T03:53:19.100Z,5.80
2023-05-18T03:55:46.786Z,5.90
2023-05-18T03:58:13.633Z,6.00
2023-05-18T04:00:43.028Z,6.00
2023-05-18T04:03:14.588Z,6.00
2023-05-18T04:05:43.766Z,5.90
2023-05-18T04:08:14.172Z,5.80
2023-05-18T04:10:42.466Z,5.80
2023-05-18T04:13:09.411Z,5.80
2023-05-18T04:15:36.753Z,5.80
2023-05-18T04:18:05.221Z,5.80
2023-05-18T04:20:32.537Z,5.80
2023-05-18T04:22:59.343Z,5.80
2023-05-18T04:25:29.707Z,5.80
2023-05-18T04:27:57.326Z,5.90
2023-05-18T04:30:26.594Z,5.80
2023-05-18T04:32:54.611Z,5.90
2023-05-18T04:35:23.317Z,5.90
2023-05-18T04:37:50.146Z,5.90
2023-05-18T04:40:17.734Z,6.00
2023-05-18T04:42:45.741Z,6.00
2023-05-18T04:45:16.058Z,6.10
2023-05-18T04:47:46.338Z,6.10
2023-05-18T04:50:17.494Z,6.20
2023-05-18T04:52:50.133Z,6.20
2023-05-18T04:55:23.284Z,6.20
2023-05-18T04:57:54.001Z,6.30
2023-05-18T05:00:21.892Z,6.30
2023-05-18T05:02:49.246Z,6.40
2023-05-18T05:05:16.171Z,6.40
2023-05-18T05:07:43.355Z,6.40
2023-05-18T05:10:11.689Z,6.50
2023-05-18T05:12:39.509Z,6.50
2023-05-18T05:15:07.831Z,6.60
2023-05-18T05:17:34.976Z,6.70
2023-05-18T05:20:01.862Z,6.70
2023-05-18T05:22:29.006Z,6.80
2023-05-18T05:24:55.895Z,6.80
2023-05-18T05:27:26.464Z,6.80
2023-05-18T05:29:53.358Z,6.90
2023-05-18T05:32:20.772Z,7.00
2023-05-18T05:34:50.228Z,7.10
2023-05-18T05:37:17.850Z,7.20
2023-05-18T05:39:44.979Z,7.30
2023-05-18T05:42:11.953Z,7.40
2023-05-18T05:44:40.966Z,7.40
2023-05-18T05:47:08.808Z,7.50
2023-05-18T05:49:36.042Z,7.60
2023-05-18T05:52:03.640Z,7.60
2023-05-18T05:54:31.206Z,7.70
2023-05-18T05:56:58.417Z,7.80
2023-05-18T05:59:25.316Z,8.00
2023-05-18T06:01:53.880Z,8.00
2023-05-18T06:04:20.909Z,8.10
2023-05-18T06:06:48.782Z,8.20
2023-05-18T06:09:16.074Z,8.20
2023-05-18T06:11:43.280Z,8.20
2023-05-18T06:14:10.185Z,8.20
2023-05-18T06:16:37.439Z,8.20
2023-05-18T06:19:05.706Z,8.30
2023-05-18T06:21:33.415Z,8.50
2023-05-18T06:24:01.371Z,8.50
2023-05-18T06:26:28.770Z,8.60
2023-05-18T06:28:55.778Z,8.70
2023-05-18T06:31:23.345Z,8.80
2023-05-18T06:33:50.311Z,9.00
2023-05-18T06:36:18.871Z,9.00
2023-05-18T06:38:45.685Z,9.10
2023-05-18T06:41:12.905Z,9.20
2023-05-18T06:43:39.784Z,9.30
2023-05-18T06:46:08.373Z,9.40
2023-05-18T06:48:37.254Z,9.40
2023-05-18T06:51:04.974Z,9.40
2023-05-18T06:53:33.217Z,9.50
2023-05-18T06:56:00.388Z,9.60
2023-05-18T06:58:27.232Z,9.60
2023-05-18T07:00:54.653Z,9.60
2023-05-18T07:03:22.076Z,9.70
2023-05-18T07:05:49.235Z,9.80
2023-05-18T07:08:16.125Z,9.90
2023-05-18T07:10:44.725Z,9.80
2023-05-18T07:13:11.551Z,9.90
2023-05-18T07:15:38.485Z,10.00
2023-05-18T07:18:05.530Z,10.10
2023-05-18T07:20:32.764Z,10.10
2023-05-18T07:22:59.672Z,10.20
2023-05-18T07:25:26.841Z,10.20
2023-05-18T07:27:55.508Z,10.30
2023-05-18T07:30:23.319Z,10.40
2023-05-18T07:32:51.351Z,10.40
2023-05-18T07:35:20.555Z,10.50
2023-05-18T07:37:47.463Z,10.50
2023-05-18T07:40:14.715Z,10.60
2023-05-18T07:42:41.902Z,10.50
2023-05-18T07:45:11.544Z,10.40
2023-05-18T07:47:38.563Z,10.50
2023-05-18T07:50:07.309Z,10.50
2023-05-18T07:52:34.210Z,10.70
2023-05-18T07:55:02.128Z,10.90
2023-05-18T07:57:30.596Z,11.00
2023-05-18T07:59:57.816Z,11.10
2023-05-18T08:02:26.224Z,11.20
2023-05-18T08:04:53.825Z,11.20
2023-05-18T08:07:21.458Z,11.40
2023-05-18T08:09:48.382Z,11.40
2023-05-18T08:12:15.206Z,11.60
2023-05-18T08:14:42.367Z,11.40
2023-05-18T08:17:09.415Z,11.40
2023-05-18T08:19:40.428Z,11.50
2023-05-18T08:22:08.692Z,11.60
2023-05-18T08:24:35.977Z,11.80
2023-05-18T08:27:03.587Z,12.00
2023-05-18T08:29:31.140Z,12.00
2023-05-18T08:31:58.085Z,12.10
2023-05-18T08:34:25.410Z,12.30
2023-05-18T08:36:53.650Z,12.30
2023-05-18T08:39:22.766Z,12.40
2023-05-18T08:41:58.542Z,12.30
2023-05-18T08:44:30.681Z,12.30
2023-05-18T08:46:58.265Z,12.30
2023-05-18T08:49:27.422Z,12.40
2023-05-18T08:52:00.549Z,12.50
2023-05-18T08:54:29.385Z,12.60
2023-05-18T08:56:57.433Z,12.50
2023-05-18T08:59:26.954Z,12.70
2023-05-18T09:01:55.101Z,12.70
2023-05-18T09:04:24.053Z,12.70
2023-05-18T09:06:53.784Z,12.90
2023-05-18T09:09:22.484Z,12.90
2023-05-18T09:11:50.741Z,13.00
2023-05-18T09:14:18.075Z,13.00
2023-05-18T09:16:44.908Z,13.10
2023-05-18T09:19:12.293Z,13.10
2023-05-18T09:21:39.234Z,13.20
2023-05-18T09:24:07.163Z,13.20
2023-05-18T09:26:35.592Z,13.40
2023-05-18T09:29:02.860Z,13.50
2023-05-18T09:31:31.016Z,13.50
2023-05-18T09:33:59.483Z,13.50
2023-05-18T09:36:26.653Z,13.60
2023-05-18T09:38:54.126Z,13.50
2023-05-18T09:41:21.825Z,13.50
2023-05-18T09:43:51.749Z,13.60
2023-05-18T09:46:20.859Z,13.60
2023-05-18T09:48:51.645Z,13.40
2023-05-18T09:51:19.008Z,13.50
2023-05-18T09:53:49.191Z,13.50
2023-05-18T09:56:18.021Z,13.40
2023-05-18T09:58:45.890Z,13.50
2023-05-18T10:01:14.574Z,13.70
2023-05-18T10:03:41.630Z,13.80
2023-05-18T10:06:10.553Z,13.90
2023-05-18T10:08:37.856Z,13.90
2023-05-18T10:11:05.827Z,14.10
2023-05-18T10:13:33.393Z,14.20
2023-05-18T10:16:01.762Z,14.20
2023-05-18T10:18:31.633Z,14.30
2023-05-18T10:21:00.456Z,14.20
2023-05-18T10:23:30.390Z,14.30
2023-05-18T10:25:58.678Z,14.40
2023-05-18T10:28:28.768Z,14.60
2023-05-18T10:30:57.829Z,14.80
2023-05-18T10:33:29.530Z,14.90
2023-05-18T10:36:03.198Z,14.70
2023-05-18T10:38:31.833Z,14.60
2023-05-18T10:41:00.893Z,14.60
2023-05-18T10:43:28.664Z,14.80
2023-05-18T10:45:58.735Z,15.10
2023-05-18T10:48:26.943Z,15.20
2023-05-18T10:50:57.058Z,14.90
2023-05-18T10:53:27.593Z,15.30
2023-05-18T10:55:55.014Z,15.40
2023-05-18T10:58:24.855Z,15.70
2023-05-18T11:00:55.152Z,15.30
2023-05-18T11:03:22.529Z,15.40
2023-05-18T11:05:51.842Z,15.50
2023-05-18T11:08:27.272Z,15.70
2023-05-18T11:11:03.003Z,15.40
2023-05-18T11:13:31.526Z,15.60
2023-05-18T11:16:09.074Z,15.70
2023-05-18T11:18:45.588Z,16.00
2023-05-18T11:21:50.353Z,16.10
2023-05-18T11:24:31.174Z,16.10
2023-05-18T11:26:59.886Z,16.10
2023-05-18T11:29:32.768Z,16.30
2023-05-18T11:32:00.556Z,16.50
2023-05-18T11:34:45.593Z,16.70
2023-05-18T11:37:14.354Z,17.00
2023-05-18T11:42:23.286Z,18.20
2023-05-18T11:44:57.298Z,18.70
2023-05-18T11:47:30.413Z,19.50
2023-05-18T11:49:58.257Z,20.10
2023-05-18T11:52:25.817Z,20.50
2023-05-18T11:54:56.357Z,20.30
2023-05-18T11:57:26.623Z,20.00
2023-05-18T11:59:58.249Z,19.30
2023-05-18T12:02:26.726Z,18.80
2023-05-18T12:04:56.776Z,18.40
2023-05-18T12:07:28.335Z,17.70
2023-05-18T12:10:00.862Z,17.60
2023-05-18T12:12:28.508Z,17.60
2023-05-18T12:14:58.642Z,17.90
2023-05-18T12:17:37.685Z,18.40
2023-05-18T12:20:06.204Z,18.50
2023-05-18T12:22:33.092Z,18.20
2023-05-18T12:25:02.050Z,18.40
2023-05-18T12:27:29.260Z,19.10
2023-05-18T12:29:56.347Z,19.60
2023-05-18T12:32:23.236Z,19.50
2023-05-18T12:34:51.863Z,19.40
2023-05-18T12:37:20.090Z,19.30
2023-05-18T12:39:52.523Z,19.60
2023-05-18T12:42:20.886Z,20.10
2023-05-18T12:44:48.377Z,20.60
2023-05-18T12:47:15.684Z,20.90
2023-05-18T12:49:48.369Z,21.50
2023-05-18T12:52:16.588Z,21.80
2023-05-18T12:54:55.928Z,21.80
2023-05-18T12:57:27.407Z,21.80
2023-05-18T12:59:55.212Z,21.70
2023-05-18T13:02:30.947Z,21.30
2023-05-18T13:05:07.720Z,21.30
2023-05-18T13:07:40.226Z,21.50
2023-05-18T13:10:09.531Z,22.00
2023-05-18T13:12:41.660Z,22.60
2023-05-18T13:15:13.411Z,22.70
2023-05-18T13:17:49.329Z,22.70
2023-05-18T13:20:17.047Z,23.00
2023-05-18T13:22:44.936Z,23.50
2023-05-18T13:25:12.001Z,23.70
2023-05-18T13:27:40.230Z,24.40
2023-05-18T13:30:08.931Z,25.10
2023-05-18T13:32:35.960Z,25.50
2023-05-18T13:35:03.405Z,25.80
2023-05-18T13:37:31.178Z,25.40
2023-05-18T13:39:58.454Z,24.70
2023-05-18T13:42:25.355Z,23.90
2023-05-18T13:44:53.904Z,22.40
2023-05-18T13:47:20.756Z,22.40
2023-05-18T13:49:48.210Z,22.10
2023-05-18T13:52:15.236Z,21.80
2023-05-18T13:54:43.064Z,22.30
2023-05-18T13:57:09.976Z,22.10
2023-05-18T13:59:37.173Z,21.90
2023-05-18T14:02:05.624Z,21.90
2023-05-18T14:04:32.982Z,22.10
2023-05-18T14:06:59.859Z,22.50
2023-05-18T14:09:28.515Z,22.70
2023-05-18T14:11:55.380Z,22.90
2023-05-18T14:14:22.987Z,22.80
2023-05-18T14:16:50.125Z,22.70
2023-05-18T14:19:19.160Z,22.80
2023-05-18T14:21:46.014Z,22.80
2023-05-18T14:24:15.486Z,22.60
2023-05-18T14:26:42.497Z,22.60
2023-05-18T14:29:09.625Z,22.70
2023-05-18T14:31:36.647Z,22.80
2023-05-18T14:34:03.941Z,23.00
2023-05-18T14:36:32.229Z,23.10
2023-05-18T14:38:59.442Z,23.60
2023-05-18T14:41:26.464Z,23.90
2023-05-18T14:43:54.707Z,23.60
2023-05-18T14:46:21.627Z,23.00
2023-05-18T14:48:49.055Z,22.70
2023-05-18T14:51:16.311Z,22.60
2023-05-18T14:53:44.901Z,22.80
2023-05-18T14:56:12.088Z,23.00
2023-05-18T14:58:39.273Z,22.90
2023-05-18T15:01:07.041Z,22.70
2023-05-18T15:03:34.497Z,22.60
2023-05-18T15:06:02.043Z,22.70
2023-05-18T15:08:29.389Z,22.50
2023-05-18T15:10:57.895Z,22.50
2023-05-18T15:13:25.307Z,22.60
2023-05-18T15:15:52.437Z,22.80
2023-05-18T15:18:19.721Z,22.80
2023-05-18T15:20:46.917Z,22.10
2023-05-18T15:23:14.031Z,21.50
2023-05-18T15:25:41.402Z,21.30
2023-05-18T15:28:11.483Z,21.00
2023-05-18T15:30:38.322Z,20.70
2023-05-18T15:33:06.567Z,20.30
2023-05-18T15:35:34.824Z,20.00
2023-05-18T15:38:02.184Z,19.70
2023-05-18T15:40:29.681Z,19.40
2023-05-18T15:42:57.086Z,19.00
2023-05-18T15:45:26.177Z,18.80
2023-05-18T15:47:53.388Z,18.40
2023-05-18T15:50:20.371Z,18.20
2023-05-18T15:52:47.875Z,18.40
2023-05-18T15:55:14.920Z,18.50
2023-05-18T15:57:42.529Z,18.40
2023-05-18T16:00:10.621Z,18.30
2023-05-18T16:02:39.392Z,18.30
2023-05-18T16:05:06.852Z,18.20
2023-05-18T16:07:34.614Z,18.20
2023-05-18T16:10:01.618Z,18.30
2023-05-18T16:12:28.789Z,18.20
2023-05-18T16:14:55.705Z,18.20
2023-05-18T16:17:22.991Z,18.20
2023-05-18T16:19:51.331Z,18.10
2023-05-18T16:22:18.525Z,18.10
2023-05-18T16:24:45.618Z,17.90
2023-05-18T16:27:12.854Z,18.10
2023-05-18T16:29:41.354Z,18.50
2023-05-18T16:32:08.647Z,18.90
2023-05-18T16:34:35.468Z,19.10
2023-05-18T16:37:03.784Z,19.40
2023-05-18T16:39:30.703Z,19.90
2023-05-18T16:41:57.643Z,19.90
2023-05-18T16:44:24.590Z,19.80
2023-05-18T16:46:51.786Z,19.60
2023-05-18T16:49:20.870Z,19.30
2023-05-18T16:51:47.815Z,19.10
2023-05-18T16:54:16.696Z,19.00
2023-05-18T16:56:43.499Z,18.70
2023-05-18T16:59:10.679Z,18.50
2023-05-18T17:01:38.171Z,18.30
2023-05-18T17:04:05.300Z,18.30
2023-05-18T17:06:32.330Z,18.10
2023-05-18T17:08:59.260Z,18.00
2023-05-18T17:11:27.724Z,17.90
2023-05-18T17:13:55.527Z,17.70
2023-05-18T17:16:22.831Z,17.50
2023-05-18T17:18:49.972Z,17.40
2023-05-18T17:21:16.891Z,17.10
2023-05-18T17:23:43.964Z,17.00
2023-05-18T17:26:10.974Z,17.00
2023-05-18T17:28:39.720Z,16.90
2023-05-18T17:31:06.742Z,16.80
2023-05-18T17:33:33.838Z,16.80
2023-05-18T17:36:00.819Z,16.70
2023-05-18T17:38:27.869Z,16.80
2023-05-18T17:40:54.718Z,16.80
2023-05-18T17:43:21.680Z,16.70
2023-05-18T17:45:50.575Z,16.70
2023-05-18T17:48:17.747Z,16.70
2023-05-18T17:50:45.384Z,16.70
2023-05-18T17:53:12.352Z,16.60
2023-05-18T17:55:39.319Z,16.60
2023-05-18T17:58:06.522Z,16.40
2023-05-18T18:00:33.665Z,16.40
2023-05-18T18:03:02.132Z,16.10
2023-05-18T18:05:29.148Z,15.90
2023-05-18T18:07:58.576Z,15.90
2023-05-18T18:10:25.537Z,15.70
2023-05-18T18:12:52.729Z,15.60
2023-05-18T18:15:20.006Z,15.50
2023-05-18T18:17:46.938Z,15.40
2023-05-18T18:20:15.294Z,15.30
2023-05-18T18:22:42.412Z,15.20
2023-05-18T18:25:09.288Z,15.10
2023-05-18T18:27:36.498Z,15.10
2023-05-18T18:30:04.688Z,15.10
2023-05-18T18:32:31.645Z,15.00
2023-05-18T18:34:58.509Z,15.00
2023-05-18T18:37:27.622Z,14.90
2023-05-18T18:39:54.712Z,14.90
2023-05-18T18:42:21.953Z,14.80
2023-05-18T18:44:48.914Z,14.70
2023-05-18T18:47:16.103Z,14.60
2023-05-18T18:49:43.157Z,14.60
2023-05-18T18:52:11.863Z,14.50
2023-05-18T18:54:43.054Z,14.50
2023-05-18T18:57:12.344Z,14.40
2023-05-18T18:59:39.316Z,14.40
2023-05-18T19:02:06.642Z,14.30
2023-05-18T19:04:33.914Z,14.20
2023-05-18T19:07:03.044Z,14.10
2023-05-18T19:09:34.593Z,14.00
2023-05-18T19:12:02.944Z,14.00
2023-05-18T19:14:29.757Z,14.00
2023-05-18T19:16:57.066Z,13.90
2023-05-18T19:19:24.032Z,13.90
2023-05-18T19:21:50.988Z,13.80
2023-05-18T19:24:17.767Z,13.80
2023-05-18T19:26:44.692Z,13.70
2023-05-18T19:29:14.208Z,13.80
2023-05-18T19:31:41.770Z,13.60
2023-05-18T19:34:08.755Z,13.50
2023-05-18T19:36:35.856Z,13.50
2023-05-18T19:39:02.908Z,13.40
2023-05-18T19:41:29.779Z,13.40
2023-05-18T19:43:56.672Z,13.40
2023-05-18T19:46:24.917Z,13.30
2023-05-18T19:48:53.573Z,13.40
2023-05-18T19:51:21.825Z,13.30
2023-05-18T19:53:48.680Z,13.30
2023-05-18T19:56:15.777Z,13.20
2023-05-18T19:58:43.068Z,13.20
2023-05-18T20:01:10.014Z,13.20
2023-05-18T20:03:40.832Z,13.00
2023-05-18T20:06:10.152Z,13.10
2023-05-18T20:08:37.019Z,13.10
2023-05-18T20:11:03.884Z,13.00
2023-05-18T20:13:30.804Z,12.90
2023-05-18T20:15:58.266Z,12.90
2023-05-18T20:18:26.543Z,12.80
2023-05-18T20:20:56.181Z,12.80
2023-05-18T20:23:23.709Z,12.70
2023-05-18T20:25:50.589Z,12.90
2023-05-18T20:28:17.815Z,12.70
2023-05-18T20:30:45.017Z,12.70
2023-05-18T20:33:12.585Z,12.60
2023-05-18T20:35:39.795Z,12.60
2023-05-18T20:38:09.614Z,12.50
2023-05-18T20:40:37.866Z,12.60
2023-05-18T20:43:06.448Z,12.60
2023-05-18T20:45:33.374Z,12.50
2023-05-18T20:48:00.659Z,12.50
2023-05-18T20:50:27.668Z,12.50
2023-05-18T20:52:54.867Z,12.40
2023-05-18T20:55:23.790Z,12.40
2023-05-18T20:57:51.283Z,12.40
2023-05-18T21:00:18.553Z,12.30
2023-05-18T21:02:46.696Z,12.30
2023-05-18T21:05:14.369Z,12.30
2023-05-18T21:07:42.237Z,12.30
2023-05-18T21:10:10.614Z,12.20
2023-05-18T21:12:38.851Z,12.20
2023-05-18T21:15:06.868Z,12.20
2023-05-18T21:17:34.247Z,12.10
2023-05-18T21:20:01.534Z,12.10
2023-05-18T21:22:28.711Z,12.10
2023-05-18T21:24:55.714Z,12.10
2023-05-18T21:27:23.037Z,12.00
2023-05-18T21:29:51.197Z,11.90
2023-05-18T21:32:18.649Z,11.90
2023-05-18T21:34:45.715Z,11.90
2023-05-18T21:37:12.901Z,11.90
2023-05-18T21:39:41.866Z,11.90
2023-05-18T21:42:09.444Z,11.80
2023-05-18T21:44:36.607Z,11.80
2023-05-18T21:47:05.362Z,11.70
2023-05-18T21:49:32.299Z,11.70
2023-05-18T21:51:59.785Z,11.70
2023-05-18T21:54:26.706Z,11.70
2023-05-18T21:56:54.141Z,11.60
2023-05-18T21:59:21.022Z,11.60
2023-05-18T22:01:47.943Z,11.60
2023-05-18T22:04:16.741Z,11.50
2023-05-18T22:06:43.900Z,11.50
2023-05-18T22:09:10.727Z,11.50
2023-05-18T22:11:37.931Z,11.50
2023-05-18T22:14:04.881Z,11.50
2023-05-18T22:16:32.113Z,11.50
2023-05-18T22:18:59.057Z,11.50
2023-05-18T22:21:27.788Z,11.50
2023-05-18T22:23:54.682Z,11.50
2023-05-18T22:26:21.956Z,11.40
2023-05-18T22:28:48.824Z,11.40
2023-05-18T22:31:15.720Z,11.40
2023-05-18T22:33:42.553Z,11.30
2023-05-18T22:36:09.995Z,11.40
2023-05-18T22:38:38.245Z,11.30
2023-05-18T22:41:05.702Z,11.30
2023-05-18T22:43:32.490Z,11.30
2023-05-18T22:45:59.748Z,11.20
2023-05-18T22:48:27.000Z,11.20
2023-05-18T22:50:54.674Z,11.20
2023-05-18T22:53:21.479Z,11.20
2023-05-18T22:55:50.046Z,11.10
2023-05-18T22:58:16.883Z,11.10
2023-05-18T23:00:43.699Z,11.00
2023-05-18T23:03:11.222Z,11.00
2023-05-18T23:05:41.310Z,10.90
2023-05-18T23:08:08.260Z,10.90
2023-05-18T23:10:35.339Z,10.90
2023-05-18T23:13:03.703Z,10.90
2023-05-18T23:15:31.596Z,10.80
2023-05-18T23:17:58.760Z,10.90
2023-05-18T23:20:25.709Z,10.80
2023-05-18T23:22:52.900Z,10.80
2023-05-18T23:25:19.802Z,10.80
2023-05-18T23:27:46.636Z,10.70
2023-05-18T23:30:14.925Z,10.70
2023-05-18T23:32:42.750Z,10.70
2023-05-18T23:35:13.209Z,10.80
2023-05-18T23:37:42.168Z,10.70
2023-05-18T23:40:11.960Z,10.70
2023-05-18T23:42:40.197Z,10.70
2023-05-18T23:45:08.691Z,10.70
2023-05-18T23:47:38.004Z,10.80
2023-05-18T23:50:06.278Z,10.80
2023-05-18T23:52:34.599Z,10.80
2023-05-18T23:55:02.764Z,10.70
2023-05-18T23:57:31.827Z,10.70
2023-05-18T23:59:59.310Z,10.80
